Time;durP1;ratioP1;P1;durP2;ratioP2;P2;SDS_P1;SDS_P2;PMS_P1;PMS_P2;Temp;Humidity;BMP_temperature;BMP_pressure;BME280_temperature;BME280_humidity;BME280_pressure;Samples;Min_cycle;Max_cycle;Signal;HPM_P1;HPM_P2
2023/05/26 00:00:06;;;;;;;26.38;6.30;;;12.40;99.90;;;;;;4920354;29;20059;-70
2023/05/26 00:02:32;;;;;;;25.33;6.70;;;12.30;99.90;;;;;;4920511;29;20051;-70
2023/05/26 00:04:59;;;;;;;40.20;8.73;;;12.30;99.90;;;;;;4938129;29;20106;-70
2023/05/26 00:07:25;;;;;;;31.38;7.97;;;12.30;99.90;;;;;;4921983;29;20413;-70
2023/05/26 00:09:51;;;;;;;30.05;7.32;;;12.30;99.90;;;;;;4940763;29;20385;-70
2023/05/26 00:12:17;;;;;;;34.67;8.25;;;12.20;99.90;;;;;;4936030;29;20066;-70
2023/05/26 00:14:43;;;;;;;32.30;6.60;;;12.20;99.90;;;;;;4920273;29;20114;-70
2023/05/26 00:17:09;;;;;;;33.95;6.47;;;12.10;99.90;;;;;;4919417;29;20083;-70
2023/05/26 00:19:37;;;;;;;28.88;6.07;;;12.10;99.90;;;;;;4918658;29;20051;-71
2023/05/26 00:22:04;;;;;;;38.33;6.80;;;12.00;99.90;;;;;;4935868;29;20047;-70
2023/05/26 00:24:30;;;;;;;33.83;6.50;;;11.90;99.90;;;;;;4922866;29;20058;-70
2023/05/26 00:26:55;;;;;;;35.58;7.88;;;12.00;99.90;;;;;;4920238;29;20055;-70
2023/05/26 00:29:21;;;;;;;29.65;7.40;;;11.90;99.90;;;;;;4937651;29;20412;-70
2023/05/26 00:31:47;;;;;;;32.78;6.97;;;11.90;99.90;;;;;;4918160;29;20048;-70
2023/05/26 00:34:12;;;;;;;31.60;6.75;;;11.90;99.90;;;;;;4935586;29;20048;-70
2023/05/26 00:36:38;;;;;;;26.52;6.60;;;11.90;99.90;;;;;;4935786;29;20051;-70
2023/05/26 00:39:04;;;;;;;28.40;7.10;;;11.90;99.90;;;;;;4942498;29;20079;-70
2023/05/26 00:41:30;;;;;;;29.88;5.95;;;11.90;99.90;;;;;;4925725;29;20047;-70
2023/05/26 00:43:55;;;;;;;32.47;6.70;;;11.80;99.90;;;;;;4914801;29;20150;-70
2023/05/26 00:46:21;;;;;;;37.83;7.88;;;11.80;99.90;;;;;;4913133;29;20048;-70
2023/05/26 00:48:47;;;;;;;37.30;7.78;;;11.70;99.90;;;;;;4940315;29;20047;-70
2023/05/26 00:51:13;;;;;;;32.17;7.03;;;11.70;99.90;;;;;;4923942;29;20133;-70
2023/05/26 00:53:43;;;;;;;33.50;7.18;;;11.70;99.90;;;;;;4919322;29;20051;-70
2023/05/26 00:56:09;;;;;;;24.25;7.35;;;11.60;99.90;;;;;;4926481;29;20413;-70
2023/05/26 00:58:35;;;;;;;31.98;7.15;;;11.60;99.90;;;;;;4909028;29;20051;-70
2023/05/26 01:01:01;;;;;;;37.60;8.60;;;11.50;99.90;;;;;;4925940;29;20062;-70
2023/05/26 01:03:27;;;;;;;35.20;7.65;;;11.50;99.90;;;;;;4901397;29;20126;-70
2023/05/26 01:05:54;;;;;;;33.80;7.72;;;11.50;99.90;;;;;;4936506;29;20206;-70
2023/05/26 01:08:19;;;;;;;27.55;7.35;;;11.50;99.90;;;;;;4913979;29;20142;-71
2023/05/26 01:10:45;;;;;;;34.92;8.13;;;11.50;99.90;;;;;;4943319;29;20592;-70
2023/05/26 01:13:21;;;;;;;34.95;8.82;;;11.50;99.90;;;;;;4935068;29;20058;-70
2023/05/26 01:15:55;;;;;;;37.92;8.60;;;11.50;99.90;;;;;;4936305;29;20130;-70
2023/05/26 01:19:13;;;;;;;31.00;7.55;;;11.40;99.90;;;;;;4922750;29;20432;-70
2023/05/26 01:21:39;;;;;;;30.55;7.63;;;11.40;99.90;;;;;;4921306;29;20118;-70
2023/05/26 01:24:12;;;;;;;35.92;7.93;;;11.40;99.90;;;;;;4936089;29;20054;-70
2023/05/26 01:26:40;;;;;;;38.47;7.82;;;11.30;99.90;;;;;;4934405;29;20118;-70
2023/05/26 01:29:14;;;;;;;35.45;7.78;;;11.30;99.90;;;;;;4938348;29;20436;-70
2023/05/26 01:31:40;;;;;;;34.45;7.25;;;11.30;99.90;;;;;;4910224;29;20051;-70
2023/05/26 01:34:06;;;;;;;36.72;6.65;;;11.20;99.90;;;;;;4920779;29;20887;-70
2023/05/26 01:36:32;;;;;;;34.67;6.57;;;11.20;99.90;;;;;;4937709;29;20138;-70
2023/05/26 01:38:59;;;;;;;36.05;6.68;;;11.20;99.90;;;;;;4938028;29;20048;-70
2023/05/26 01:41:53;;;;;;;34.70;6.82;;;11.10;99.90;;;;;;4919420;29;20127;-70
2023/05/26 01:44:54;;;;;;;36.13;6.53;;;11.10;99.90;;;;;;4936029;29;20127;-70
2023/05/26 01:47:20;;;;;;;38.03;7.15;;;11.10;99.90;;;;;;4902145;29;20047;-70
2023/05/26 01:49:46;;;;;;;32.00;6.65;;;11.00;99.90;;;;;;4940208;29;20047;-70
2023/05/26 01:52:12;;;;;;;24.13;5.63;;;11.00;99.90;;;;;;4885732;29;20053;-70
2023/05/26 01:54:49;;;;;;;32.17;6.53;;;11.00;99.90;;;;;;4918257;29;20126;-70
2023/05/26 01:57:16;;;;;;;35.60;6.78;;;11.00;99.90;;;;;;4925880;29;20051;-70
2023/05/26 01:59:42;;;;;;;41.10;7.38;;;10.90;99.90;;;;;;4922345;29;20217;-70
2023/05/26 02:02:07;;;;;;;27.95;6.18;;;10.80;99.90;;;;;;4934303;29;20056;-70
2023/05/26 02:04:33;;;;;;;35.47;7.18;;;10.80;99.90;;;;;;4918767;29;20062;-70
2023/05/26 02:07:02;;;;;;;40.22;6.32;;;10.80;99.90;;;;;;4919696;29;20043;-70
2023/05/26 02:09:30;;;;;;;33.60;7.03;;;10.80;99.90;;;;;;4922199;29;20048;-70
2023/05/26 02:11:55;;;;;;;40.83;6.53;;;10.60;99.90;;;;;;4919504;29;20059;-70
2023/05/26 02:14:21;;;;;;;29.55;6.95;;;10.70;99.90;;;;;;4902157;29;20051;-70
2023/05/26 02:16:47;;;;;;;27.13;5.88;;;10.70;99.90;;;;;;4934930;29;20079;-70
2023/05/26 02:19:13;;;;;;;32.50;6.40;;;10.70;99.90;;;;;;4919902;29;20055;-70
2023/05/26 02:21:39;;;;;;;31.15;6.00;;;10.70;99.90;;;;;;4934370;29;20496;-70
2023/05/26 02:24:05;;;;;;;34.97;7.57;;;10.70;99.90;;;;;;4918490;29;20125;-70
2023/05/26 02:26:31;;;;;;;28.65;6.38;;;10.70;99.90;;;;;;4929831;29;20064;-70
2023/05/26 02:28:56;;;;;;;31.05;7.70;;;10.60;99.90;;;;;;4915360;29;20423;-70
2023/05/26 02:31:22;;;;;;;25.98;5.97;;;10.60;99.90;;;;;;4917030;29;20080;-70
2023/05/26 02:33:49;;;;;;;34.40;6.13;;;10.60;99.90;;;;;;4915010;29;20071;-70
2023/05/26 02:36:14;;;;;;;37.10;7.05;;;10.50;99.90;;;;;;4899396;29;20060;-70
2023/05/26 02:38:40;;;;;;;28.40;6.13;;;10.50;99.90;;;;;;4936266;29;20131;-70
2023/05/26 02:41:07;;;;;;;30.40;6.38;;;10.50;99.90;;;;;;4920734;29;20115;-70
2023/05/26 02:43:33;;;;;;;40.50;7.47;;;10.50;99.90;;;;;;4933258;29;20100;-70
2023/05/26 02:45:59;;;;;;;26.08;5.95;;;10.40;99.90;;;;;;4919125;29;20048;-70
2023/05/26 02:48:25;;;;;;;32.55;6.28;;;10.40;99.90;;;;;;4902364;29;20044;-70
2023/05/26 02:50:51;;;;;;;35.00;7.40;;;10.40;99.90;;;;;;4921995;29;20505;-70
2023/05/26 02:53:17;;;;;;;31.90;7.13;;;10.30;99.90;;;;;;4918561;29;20055;-70
2023/05/26 02:55:44;;;;;;;34.08;6.28;;;10.30;99.90;;;;;;4917452;29;20111;-70
2023/05/26 02:58:11;;;;;;;38.55;6.43;;;10.20;99.90;;;;;;4922023;29;20039;-70
2023/05/26 03:00:36;;;;;;;41.00;6.70;;;10.20;99.90;;;;;;4931694;29;20121;-71
2023/05/26 03:03:02;;;;;;;39.72;7.07;;;10.10;99.90;;;;;;4907430;29;20055;-72
2023/05/26 03:05:28;;;;;;;30.55;7.45;;;10.20;99.90;;;;;;4901710;29;20296;-70
2023/05/26 03:07:54;;;;;;;30.38;6.65;;;10.20;99.90;;;;;;4939954;29;20071;-70
2023/05/26 03:10:20;;;;;;;31.30;6.38;;;10.20;99.90;;;;;;4937769;29;20107;-70
2023/05/26 03:12:45;;;;;;;27.15;5.97;;;10.10;99.90;;;;;;4939387;29;20048;-70
2023/05/26 03:15:13;;;;;;;31.10;6.70;;;10.10;99.90;;;;;;4936404;29;20115;-70
2023/05/26 03:17:39;;;;;;;29.95;6.20;;;10.10;99.90;;;;;;4924336;29;20789;-70
2023/05/26 03:20:06;;;;;;;36.60;7.60;;;10.10;99.90;;;;;;4941784;29;20048;-70
2023/05/26 03:22:31;;;;;;;25.40;5.82;;;10.10;99.90;;;;;;4903117;29;20075;-70
2023/05/26 03:24:57;;;;;;;31.95;6.25;;;10.00;99.90;;;;;;4920097;29;20071;-70
2023/05/26 03:27:23;;;;;;;29.67;6.75;;;9.90;99.90;;;;;;4921425;29;20551;-70
2023/05/26 03:29:49;;;;;;;33.30;6.57;;;9.90;99.90;;;;;;4918169;29;20420;-70
2023/05/26 03:32:15;;;;;;;31.20;7.72;;;9.80;99.90;;;;;;4939992;29;20085;-70
2023/05/26 03:34:41;;;;;;;37.05;8.88;;;9.80;99.90;;;;;;4939624;29;20087;-70
2023/05/26 03:37:07;;;;;;;28.40;7.55;;;9.70;99.90;;;;;;4936126;29;20089;-70
2023/05/26 03:39:33;;;;;;;34.83;7.93;;;9.70;99.90;;;;;;4924513;29;20089;-70
2023/05/26 03:41:59;;;;;;;35.58;7.13;;;9.70;99.90;;;;;;4922916;29;20055;-70
2023/05/26 03:44:26;;;;;;;34.95;6.93;;;9.60;99.90;;;;;;4923611;29;20142;-71
2023/05/26 03:46:51;;;;;;;37.38;7.55;;;9.60;99.90;;;;;;4937744;29;20043;-70
2023/05/26 03:49:17;;;;;;;36.75;8.13;;;9.40;99.90;;;;;;4923244;29;21113;-70
2023/05/26 03:51:43;;;;;;;34.78;6.70;;;9.40;99.90;;;;;;4940044;28;20134;-70
2023/05/26 03:54:09;;;;;;;40.70;7.28;;;9.40;99.90;;;;;;4912074;29;20043;-70
2023/05/26 03:56:36;;;;;;;32.05;6.82;;;9.30;99.90;;;;;;4920238;29;20086;-70
2023/05/26 03:59:02;;;;;;;27.92;6.18;;;9.40;99.90;;;;;;4925507;29;20083;-70
2023/05/26 04:01:28;;;;;;;36.25;6.00;;;9.30;99.90;;;;;;4922019;29;20080;-70
2023/05/26 04:03:55;;;;;;;27.85;6.50;;;9.40;99.90;;;;;;4929267;29;20051;-70
2023/05/26 04:06:23;;;;;;;31.88;6.07;;;9.50;99.90;;;;;;4906012;29;20130;-70
2023/05/26 04:08:49;;;;;;;35.55;6.57;;;9.50;99.90;;;;;;4941001;29;20044;-70
2023/05/26 04:11:15;;;;;;;30.17;6.50;;;9.40;99.90;;;;;;4920547;29;20062;-70
2023/05/26 04:13:41;;;;;;;34.13;7.28;;;9.40;99.90;;;;;;4929700;29;20047;-70
2023/05/26 04:16:07;;;;;;;27.77;6.90;;;9.40;99.90;;;;;;4920217;29;20054;-70
2023/05/26 04:18:34;;;;;;;36.97;7.95;;;9.50;99.90;;;;;;4942526;29;20048;-70
2023/05/26 04:21:01;;;;;;;36.40;7.38;;;9.30;99.90;;;;;;4919240;29;20051;-70
2023/05/26 04:23:27;;;;;;;30.55;6.72;;;9.30;99.90;;;;;;4939450;29;20043;-70
2023/05/26 04:25:55;;;;;;;48.22;8.18;;;9.30;99.90;;;;;;4917919;29;20079;-70
2023/05/26 04:28:21;;;;;;;37.63;7.63;;;9.30;99.90;;;;;;4902048;29;20052;-70
2023/05/26 04:30:47;;;;;;;34.10;7.13;;;9.30;99.90;;;;;;4916789;29;20066;-70
2023/05/26 04:33:15;;;;;;;28.55;6.10;;;9.20;99.90;;;;;;4885286;29;20151;-70
2023/05/26 04:35:44;;;;;;;32.33;6.60;;;9.30;99.90;;;;;;4897019;29;20139;-70
2023/05/26 04:38:12;;;;;;;35.05;7.15;;;9.40;99.90;;;;;;4916798;29;20532;-70
2023/05/26 04:40:39;;;;;;;43.00;7.30;;;9.50;99.90;;;;;;4919259;29;20078;-70
2023/05/26 04:43:05;;;;;;;35.33;6.85;;;9.40;99.90;;;;;;4921011;29;20130;-70
2023/05/26 04:45:35;;;;;;;46.60;8.30;;;9.40;99.90;;;;;;4917887;29;20123;-70
2023/05/26 04:48:01;;;;;;;36.28;7.45;;;9.50;99.90;;;;;;4911059;29;20075;-70
2023/05/26 04:50:26;;;;;;;36.28;8.85;;;9.40;99.90;;;;;;4918098;29;20142;-70
2023/05/26 04:52:52;;;;;;;36.88;8.43;;;9.40;99.90;;;;;;4916224;29;20501;-70
2023/05/26 04:55:18;;;;;;;38.60;7.15;;;9.20;99.90;;;;;;4920029;29;20139;-70
2023/05/26 04:57:44;;;;;;;31.88;7.47;;;9.40;99.90;;;;;;4900448;29;20067;-70
2023/05/26 05:00:13;;;;;;;40.08;7.45;;;9.50;99.90;;;;;;4939501;29;20051;-70
2023/05/26 05:02:40;;;;;;;30.23;7.13;;;9.30;99.90;;;;;;4916705;29;20055;-70
2023/05/26 05:05:06;;;;;;;44.20;7.30;;;9.30;99.90;;;;;;4893672;29;20465;-70
2023/05/26 05:07:32;;;;;;;33.97;7.93;;;9.30;99.90;;;;;;4915625;29;20054;-70
2023/05/26 05:09:58;;;;;;;31.45;6.90;;;9.50;99.90;;;;;;4916236;29;20074;-70
2023/05/26 05:12:24;;;;;;;32.30;6.18;;;9.50;99.90;;;;;;4933087;29;20056;-70
2023/05/26 05:14:50;;;;;;;38.22;7.90;;;9.40;99.90;;;;;;4916159;29;20699;-70
2023/05/26 05:17:16;;;;;;;38.58;8.10;;;9.40;99.90;;;;;;4914983;29;20054;-72
2023/05/26 05:19:42;;;;;;;31.08;7.25;;;9.40;99.90;;;;;;4916538;29;20397;-73
2023/05/26 05:22:08;;;;;;;38.58;8.43;;;9.40;99.90;;;;;;4918736;29;20048;-72
2023/05/26 05:24:34;;;;;;;32.25;6.70;;;9.50;99.90;;;;;;4931280;29;20048;-72
2023/05/26 05:27:02;;;;;;;32.05;6.75;;;9.40;99.90;;;;;;4931155;29;20065;-72
2023/05/26 05:29:27;;;;;;;25.48;6.10;;;9.50;99.90;;;;;;4936887;29;20120;-73
2023/05/26 05:31:54;;;;;;;39.92;7.28;;;9.50;99.90;;;;;;4919514;29;20048;-73
2023/05/26 05:34:20;;;;;;;24.65;6.32;;;9.60;99.90;;;;;;4940421;29;20099;-73
2023/05/26 05:36:46;;;;;;;41.90;7.40;;;9.60;99.90;;;;;;4930869;29;20354;-72
2023/05/26 05:39:11;;;;;;;38.15;7.75;;;9.70;99.90;;;;;;4920706;29;20070;-70
2023/05/26 05:41:37;;;;;;;30.95;6.47;;;9.70;99.90;;;;;;4916059;29;20059;-70
2023/05/26 05:44:03;;;;;;;25.02;5.90;;;9.70;99.90;;;;;;4914297;29;20068;-70
2023/05/26 05:46:29;;;;;;;30.88;7.15;;;9.80;99.90;;;;;;4899198;29;20044;-70
2023/05/26 05:48:55;;;;;;;38.75;6.93;;;9.80;99.90;;;;;;4936780;29;20040;-70
2023/05/26 05:51:20;;;;;;;33.95;7.60;;;9.90;99.90;;;;;;4913921;29;20444;-70
2023/05/26 05:53:46;;;;;;;39.40;7.50;;;9.90;99.90;;;;;;4900817;29;20047;-70
2023/05/26 05:56:12;;;;;;;35.80;6.85;;;9.90;99.90;;;;;;4929370;29;20158;-70
2023/05/26 05:58:38;;;;;;;32.53;7.10;;;10.10;99.90;;;;;;4924253;29;20055;-70
2023/05/26 06:01:04;;;;;;;32.50;7.47;;;10.10;99.90;;;;;;4915339;29;20044;-70
2023/05/26 06:03:29;;;;;;;28.23;7.10;;;10.10;99.90;;;;;;4916236;29;20456;-70
2023/05/26 06:05:55;;;;;;;36.50;7.22;;;10.20;99.90;;;;;;4933811;29;20377;-70
2023/05/26 06:08:21;;;;;;;27.45;6.10;;;10.20;99.90;;;;;;4937257;29;20044;-70
2023/05/26 06:10:46;;;;;;;38.03;7.35;;;10.30;99.90;;;;;;4913514;29;20077;-70
2023/05/26 06:13:12;;;;;;;29.17;6.53;;;10.30;99.90;;;;;;4914086;29;20052;-70
2023/05/26 06:15:38;;;;;;;31.27;7.40;;;10.30;99.90;;;;;;4902887;29;20056;-71
2023/05/26 06:18:04;;;;;;;31.88;7.18;;;10.40;99.90;;;;;;4920775;29;20043;-70
2023/05/26 06:20:29;;;;;;;34.53;7.13;;;10.50;99.90;;;;;;4913885;29;20104;-71
2023/05/26 06:22:55;;;;;;;29.98;6.32;;;10.60;99.90;;;;;;4915311;29;20048;-71
2023/05/26 06:25:21;;;;;;;32.10;6.10;;;10.80;99.90;;;;;;4897695;29;20369;-71
2023/05/26 06:27:47;;;;;;;28.38;6.07;;;10.90;99.90;;;;;;4910001;29;20064;-71
2023/05/26 06:30:13;;;;;;;41.85;6.97;;;11.00;99.90;;;;;;4899975;29;20044;-70
2023/05/26 06:32:39;;;;;;;26.90;5.68;;;11.10;99.90;;;;;;4916631;29;20377;-71
2023/05/26 06:35:05;;;;;;;31.50;7.53;;;11.20;99.90;;;;;;4920137;29;20131;-71
2023/05/26 06:37:31;;;;;;;29.67;6.50;;;11.30;99.90;;;;;;4899819;29;20048;-71
2023/05/26 06:39:57;;;;;;;28.38;5.55;;;11.40;99.90;;;;;;4916181;29;20056;-71
2023/05/26 06:42:23;;;;;;;27.02;5.97;;;11.50;99.90;;;;;;4915386;29;20055;-71
2023/05/26 06:44:49;;;;;;;32.40;5.57;;;11.60;99.90;;;;;;4933187;29;20982;-71
2023/05/26 06:47:15;;;;;;;27.70;6.35;;;11.60;99.90;;;;;;4911727;29;20060;-71
2023/05/26 06:49:41;;;;;;;26.70;6.57;;;11.70;99.90;;;;;;4923584;29;20044;-71
2023/05/26 06:52:07;;;;;;;28.45;6.85;;;11.60;99.90;;;;;;4917801;29;20091;-71
2023/05/26 06:54:32;;;;;;;27.90;6.53;;;11.70;99.90;;;;;;4915431;29;20405;-71
2023/05/26 06:57:00;;;;;;;28.67;6.18;;;11.80;99.90;;;;;;4928067;29;20544;-71
2023/05/26 06:59:26;;;;;;;26.30;5.53;;;11.90;99.90;;;;;;4915249;29;20138;-71
2023/05/26 07:01:52;;;;;;;36.17;6.60;;;11.90;99.90;;;;;;4912097;29;20215;-71
2023/05/26 07:04:18;;;;;;;28.52;6.63;;;12.00;99.90;;;;;;4935771;29;20470;-71
2023/05/26 07:06:45;;;;;;;24.65;6.10;;;12.10;99.90;;;;;;4933875;29;20059;-71
2023/05/26 07:09:10;;;;;;;25.92;6.82;;;12.10;99.90;;;;;;4899433;29;20055;-71
2023/05/26 07:11:36;;;;;;;27.55;5.97;;;12.20;99.90;;;;;;4914763;29;20505;-71
2023/05/26 07:14:02;;;;;;;27.75;6.82;;;12.20;99.90;;;;;;4936606;29;20114;-71
2023/05/26 07:16:28;;;;;;;31.40;6.63;;;12.30;99.90;;;;;;4931641;29;20424;-71
2023/05/26 07:18:54;;;;;;;32.15;7.40;;;12.30;99.90;;;;;;4902412;29;20048;-71
2023/05/26 07:21:21;;;;;;;30.25;6.82;;;12.30;99.90;;;;;;4884108;29;20170;-71
2023/05/26 07:23:48;;;;;;;26.48;6.13;;;12.40;99.90;;;;;;4914779;29;20048;-71
2023/05/26 07:26:15;;;;;;;31.42;7.28;;;12.30;99.90;;;;;;4932224;29;20055;-71
2023/05/26 07:28:41;;;;;;;29.98;6.65;;;12.20;99.90;;;;;;4920046;29;20052;-71
2023/05/26 07:31:07;;;;;;;33.75;6.60;;;12.30;99.90;;;;;;4922580;29;20059;-71
2023/05/26 07:33:32;;;;;;;28.27;6.15;;;12.40;99.90;;;;;;4919597;29;20044;-71
2023/05/26 07:35:58;;;;;;;32.90;7.18;;;12.50;99.90;;;;;;4925062;29;20051;-71
2023/05/26 07:38:24;;;;;;;28.92;5.93;;;12.60;99.90;;;;;;4937251;29;20043;-71
2023/05/26 07:40:51;;;;;;;28.33;5.60;;;12.70;99.90;;;;;;4922799;29;20071;-71
2023/05/26 07:43:16;;;;;;;30.55;7.03;;;12.80;99.90;;;;;;4921420;29;20062;-71
2023/05/26 07:45:42;;;;;;;29.25;6.95;;;12.80;99.90;;;;;;4925034;29;20047;-71
2023/05/26 07:48:08;;;;;;;31.88;6.28;;;12.80;99.90;;;;;;4911226;29;20047;-71
2023/05/26 07:50:34;;;;;;;26.70;6.63;;;12.90;99.90;;;;;;4925011;29;20044;-71
2023/05/26 07:53:00;;;;;;;29.38;6.03;;;12.90;99.90;;;;;;4921050;29;20716;-71
2023/05/26 07:55:25;;;;;;;30.77;7.15;;;13.00;99.90;;;;;;4918540;29;20373;-71
2023/05/26 07:57:51;;;;;;;21.60;5.80;;;13.00;99.90;;;;;;4907053;29;20048;-71
2023/05/26 08:00:17;;;;;;;25.73;6.07;;;13.10;99.90;;;;;;4939766;29;20051;-71
2023/05/26 08:02:43;;;;;;;30.80;7.22;;;13.20;99.90;;;;;;4903503;29;20079;-71
2023/05/26 08:05:10;;;;;;;32.80;6.63;;;13.20;99.90;;;;;;4941419;29;20508;-71
2023/05/26 08:07:36;;;;;;;30.63;6.28;;;13.30;99.90;;;;;;4936774;29;20647;-71
2023/05/26 08:10:02;;;;;;;25.10;5.93;;;13.40;99.90;;;;;;4941050;29;20065;-71
2023/05/26 08:12:28;;;;;;;27.77;6.35;;;13.50;99.90;;;;;;4948741;29;20547;-71
2023/05/26 08:14:54;;;;;;;28.90;6.97;;;13.40;99.90;;;;;;4920410;29;20134;-71
2023/05/26 08:17:20;;;;;;;26.83;5.78;;;13.30;99.90;;;;;;4938965;29;20054;-71
2023/05/26 08:19:46;;;;;;;29.23;5.47;;;13.40;99.90;;;;;;4939951;29;20039;-71
2023/05/26 08:22:12;;;;;;;26.77;6.45;;;13.40;99.90;;;;;;4921600;29;20047;-71
2023/05/26 08:24:37;;;;;;;30.27;6.50;;;13.50;99.90;;;;;;4917134;29;20071;-71
2023/05/26 08:27:03;;;;;;;28.63;6.25;;;13.60;99.90;;;;;;4938015;29;20043;-71
2023/05/26 08:29:30;;;;;;;27.98;5.95;;;13.60;99.90;;;;;;4925609;29;20393;-71
2023/05/26 08:31:56;;;;;;;22.95;5.57;;;13.70;99.90;;;;;;4920015;29;20449;-71
2023/05/26 08:34:22;;;;;;;27.77;6.22;;;13.70;99.90;;;;;;4923912;29;20044;-71
2023/05/26 08:36:48;;;;;;;22.88;6.07;;;13.80;99.90;;;;;;4918366;29;20134;-71
2023/05/26 08:39:14;;;;;;;31.10;6.10;;;13.90;99.90;;;;;;4937259;29;20051;-71
2023/05/26 08:42:15;;;;;;;24.73;5.68;;;14.00;99.90;;;;;;4937824;29;20079;-71
2023/05/26 08:44:44;;;;;;;30.02;6.90;;;14.10;99.90;;;;;;4892550;29;20047;-71
2023/05/26 08:47:11;;;;;;;28.63;5.93;;;14.10;99.90;;;;;;4938594;29;20115;-71
2023/05/26 08:49:46;;;;;;;27.20;7.30;;;13.90;99.90;;;;;;4917270;29;20048;-71
2023/05/26 08:52:13;;;;;;;25.63;5.80;;;13.90;99.90;;;;;;4934788;29;20488;-71
2023/05/26 08:54:42;;;;;;;23.15;5.50;;;13.90;99.90;;;;;;4919383;29;20138;-71
2023/05/26 08:57:08;;;;;;;28.30;6.78;;;14.10;99.90;;;;;;4922268;29;20487;-71
2023/05/26 08:59:34;;;;;;;32.60;5.88;;;14.20;99.90;;;;;;4925301;29;20081;-71
2023/05/26 09:02:00;;;;;;;31.42;5.75;;;14.20;99.90;;;;;;4921262;29;20056;-71
2023/05/26 09:04:29;;;;;;;30.58;6.93;;;14.40;99.90;;;;;;4942041;29;20150;-71
2023/05/26 09:06:55;;;;;;;25.27;6.28;;;14.50;99.90;;;;;;4921880;29;20485;-71
2023/05/26 09:09:20;;;;;;;29.13;6.30;;;14.50;99.90;;;;;;4924802;29;20054;-71
2023/05/26 09:11:46;;;;;;;28.30;6.60;;;14.50;99.90;;;;;;4888570;29;20054;-71
2023/05/26 09:14:13;;;;;;;29.55;6.35;;;14.30;99.90;;;;;;4936488;29;20576;-71
2023/05/26 09:16:39;;;;;;;26.73;7.07;;;14.40;99.90;;;;;;4936975;29;20065;-71
2023/05/26 09:19:05;;;;;;;27.10;6.50;;;14.50;99.90;;;;;;4919588;29;20063;-71
2023/05/26 09:21:30;;;;;;;26.40;6.07;;;14.50;99.90;;;;;;4938266;29;20048;-71
2023/05/26 09:23:59;;;;;;;26.50;6.35;;;14.50;99.90;;;;;;4904361;29;20043;-71
2023/05/26 09:26:33;;;;;;;28.90;5.90;;;14.60;99.90;;;;;;4938691;29;20056;-71
2023/05/26 09:28:59;;;;;;;27.40;5.78;;;14.70;99.90;;;;;;4923503;29;20047;-71
2023/05/26 09:31:25;;;;;;;25.63;6.18;;;14.80;99.90;;;;;;4935417;29;20497;-71
2023/05/26 09:33:52;;;;;;;27.65;5.43;;;14.50;99.90;;;;;;4921455;29;20060;-71
2023/05/26 09:36:21;;;;;;;30.70;7.65;;;14.70;99.90;;;;;;4922302;29;20059;-71
2023/05/26 09:38:50;;;;;;;31.88;6.88;;;14.90;99.90;;;;;;4943946;29;20062;-71
2023/05/26 09:41:17;;;;;;;;;;;14.90;99.90;;;;;;4922495;29;20122;-71
2023/05/26 09:43:43;;;;;;;25.25;5.72;;;14.70;99.90;;;;;;4927469;29;19961;-71
2023/05/26 09:46:20;;;;;;;27.40;5.93;;;14.80;99.90;;;;;;4941637;29;20051;-71
2023/05/26 09:48:50;;;;;;;23.77;5.45;;;14.90;99.90;;;;;;4935458;29;20436;-71
2023/05/26 09:51:20;;;;;;;24.67;6.45;;;14.90;99.90;;;;;;4938369;29;20117;-71
2023/05/26 09:53:46;;;;;;;26.92;5.93;;;15.00;99.90;;;;;;4935272;29;20709;-71
2023/05/26 09:56:11;;;;;;;25.65;5.63;;;15.00;99.90;;;;;;4924647;29;20043;-71
2023/05/26 09:58:39;;;;;;;27.67;6.78;;;15.10;99.90;;;;;;4943536;29;20067;-71
2023/05/26 10:01:05;;;;;;;22.35;6.03;;;15.20;99.90;;;;;;4919591;29;20047;-71
2023/05/26 10:03:31;;;;;;;28.10;6.22;;;15.20;99.90;;;;;;4921228;29;20043;-71
2023/05/26 10:05:57;;;;;;;23.20;6.32;;;15.20;99.90;;;;;;4893184;29;20050;-71
2023/05/26 10:08:23;;;;;;;25.50;5.90;;;15.10;99.90;;;;;;4918240;29;20055;-71
2023/05/26 10:10:50;;;;;;;24.27;6.50;;;15.30;99.90;;;;;;4905800;29;20372;-71
2023/05/26 10:13:18;;;;;;;26.65;5.32;;;15.60;99.90;;;;;;4923720;29;20043;-71
2023/05/26 10:15:45;;;;;;;25.95;5.85;;;15.50;99.70;;;;;;4941579;29;20666;-71
2023/05/26 10:18:11;;;;;;;23.80;5.95;;;15.70;99.90;;;;;;4919023;29;20554;-71
2023/05/26 10:20:38;;;;;;;25.17;6.88;;;15.60;98.60;;;;;;4922848;29;20457;-71
2023/05/26 10:23:10;;;;;;;25.60;5.40;;;15.50;99.90;;;;;;4937503;29;20066;-71
2023/05/26 10:25:48;;;;;;;26.73;5.97;;;15.80;99.90;;;;;;4909318;29;20210;-71
2023/05/26 10:28:49;;;;;;;23.23;5.20;;;16.10;99.10;;;;;;4936295;29;20063;-71
2023/05/26 10:31:34;;;;;;;27.30;6.43;;;15.80;96.40;;;;;;4917417;29;20043;-71
2023/05/26 10:34:00;;;;;;;26.85;5.22;;;15.90;97.80;;;;;;4886444;29;20051;-71
2023/05/26 10:36:26;;;;;;;23.48;5.60;;;16.20;96.50;;;;;;4936956;29;20043;-71
2023/05/26 10:38:52;;;;;;;23.08;5.45;;;16.10;96.30;;;;;;4942113;29;20040;-71
2023/05/26 10:41:38;;;;;;;24.95;5.47;;;16.10;96.00;;;;;;4917979;29;20047;-71
2023/05/26 10:44:03;;;;;;;20.25;5.82;;;16.10;96.10;;;;;;4933669;29;20536;-71
2023/05/26 10:46:44;;;;;;;21.65;5.28;;;16.20;96.30;;;;;;4902358;29;20118;-71
2023/05/26 10:49:20;;;;;;;24.13;5.53;;;16.30;95.00;;;;;;4903609;29;20048;-72
2023/05/26 10:51:53;;;;;;;18.80;4.90;;;16.40;96.80;;;;;;4936219;29;20087;-71
2023/05/26 10:54:22;;;;;;;21.65;5.32;;;16.80;95.10;;;;;;4916408;29;20184;-71
2023/05/26 10:56:49;;;;;;;25.50;5.78;;;16.60;93.00;;;;;;4914308;29;20083;-72
2023/05/26 10:59:22;;;;;;;19.58;4.78;;;16.40;92.40;;;;;;4913210;29;20377;-71
2023/05/26 11:01:54;;;;;;;19.98;5.18;;;16.50;93.20;;;;;;4903865;29;20082;-71
2023/05/26 11:04:21;;;;;;;20.33;5.18;;;16.60;93.40;;;;;;4939231;29;20055;-71
2023/05/26 11:06:51;;;;;;;15.65;4.68;;;16.60;92.60;;;;;;4927009;29;20044;-71
2023/05/26 11:09:20;;;;;;;21.00;4.95;;;16.50;90.70;;;;;;4921868;29;20055;-71
2023/05/26 11:11:57;;;;;;;20.70;4.82;;;16.60;92.40;;;;;;4940241;29;20050;-71
2023/05/26 11:14:30;;;;;;;20.40;5.32;;;16.50;91.00;;;;;;4944908;29;20116;-71
2023/05/26 11:16:57;;;;;;;23.75;4.63;;;16.50;90.00;;;;;;4921235;29;20461;-71
2023/05/26 11:19:34;;;;;;;22.02;5.05;;;16.50;90.60;;;;;;4933556;29;20063;-71
2023/05/26 11:22:01;;;;;;;24.02;4.80;;;16.30;90.50;;;;;;4922752;29;20126;-71
2023/05/26 11:24:26;;;;;;;20.98;5.32;;;16.50;91.30;;;;;;4926924;29;20058;-71
2023/05/26 11:26:52;;;;;;;19.08;4.95;;;16.60;91.10;;;;;;4905818;29;20060;-71
2023/05/26 11:29:21;;;;;;;17.83;4.70;;;16.90;90.70;;;;;;4936936;29;20043;-71
2023/05/26 11:31:48;;;;;;;22.00;4.47;;;16.80;89.00;;;;;;4941838;29;20063;-71
2023/05/26 11:34:14;;;;;;;17.83;4.60;;;16.60;89.20;;;;;;4926180;29;20053;-71
2023/05/26 11:36:40;;;;;;;17.77;4.88;;;16.80;91.40;;;;;;4939393;29;20047;-71
2023/05/26 11:39:06;;;;;;;15.43;4.38;;;17.00;89.40;;;;;;4936535;29;20130;-71
2023/05/26 11:41:32;;;;;;;19.13;4.95;;;17.10;90.60;;;;;;4935939;29;20051;-71
2023/05/26 11:43:58;;;;;;;16.83;4.72;;;17.30;89.30;;;;;;4924935;29;20054;-71
2023/05/26 11:46:27;;;;;;;14.05;3.92;;;17.10;84.40;;;;;;4923022;29;20609;-71
2023/05/26 11:48:53;;;;;;;14.93;4.07;;;17.10;84.70;;;;;;4937489;29;20043;-71
2023/05/26 11:51:21;;;;;;;16.10;4.97;;;17.40;84.70;;;;;;4943049;29;20043;-71
2023/05/26 11:53:51;;;;;;;18.25;4.50;;;17.40;83.70;;;;;;4941197;29;20058;-71
2023/05/26 11:56:17;;;;;;;20.02;4.47;;;17.30;84.30;;;;;;4916833;29;20047;-71
2023/05/26 11:58:46;;;;;;;15.85;4.65;;;17.40;82.20;;;;;;4917913;29;20056;-71
2023/05/26 12:01:12;;;;;;;13.00;3.53;;;17.50;82.50;;;;;;4934390;29;20044;-71
2023/05/26 12:03:41;;;;;;;14.10;4.00;;;17.70;80.90;;;;;;4924429;29;20097;-71
2023/05/26 12:06:16;;;;;;;;;;;17.90;78.90;;;;;;4925431;29;20075;-71
2023/05/26 12:08:48;;;;;;;14.80;3.40;;;17.80;76.60;;;;;;4937057;29;20052;-71
2023/05/26 12:11:17;;;;;;;17.48;3.88;;;17.60;77.70;;;;;;4945100;28;20126;-71
2023/05/26 12:13:43;;;;;;;16.75;3.88;;;17.80;80.10;;;;;;4935172;29;20044;-73
2023/05/26 12:16:22;;;;;;;12.73;3.75;;;18.20;81.20;;;;;;4926122;29;20492;-75
2023/05/26 12:18:51;;;;;;;14.68;3.40;;;18.40;79.20;;;;;;4915107;29;20067;-73
2023/05/26 12:21:16;;;;;;;12.30;3.45;;;18.50;78.70;;;;;;4943676;29;20047;-73
2023/05/26 12:23:42;;;;;;;14.95;3.80;;;18.80;75.90;;;;;;4893007;29;20051;-73
2023/05/26 12:26:18;;;;;;;13.35;3.28;;;18.60;73.80;;;;;;4941537;29;20488;-74
2023/05/26 12:28:44;;;;;;;16.13;4.05;;;18.80;77.10;;;;;;4913646;29;20058;-74
2023/05/26 12:31:10;;;;;;;10.27;2.92;;;18.60;69.50;;;;;;4919783;29;20043;-74
2023/05/26 12:33:36;;;;;;;13.60;3.55;;;18.70;76.00;;;;;;4917131;29;20669;-74
2023/05/26 12:36:06;;;;;;;12.55;3.50;;;19.00;75.20;;;;;;4916949;29;20051;-74
2023/05/26 12:38:41;;;;;;;15.15;3.97;;;19.20;73.30;;;;;;4918750;29;20401;-74
2023/05/26 12:41:09;;;;;;;12.55;3.58;;;18.80;73.30;;;;;;4892378;29;20047;-74